Time;durP1;ratioP1;P1;durP2;ratioP2;P2;SDS_P1;SDS_P2;PMS_P1;PMS_P2;Temp;Humidity;BMP_temperature;BMP_pressure;BME280_temperature;BME280_humidity;BME280_pressure;Samples;Min_cycle;Max_cycle;Signal;HPM_P1;HPM_P2
2023/06/13 00:01:30;;;;;;;3.50;2.17;;;;;;;;;;5053170;28;20045;-62
2023/06/13 00:03:57;;;;;;;4.47;2.42;;;;;;;;;;5051380;28;20057;-61
2023/06/13 00:06:23;;;;;;;3.83;2.30;;;;;;;;;;5051407;28;20255;-61
2023/06/13 00:08:49;;;;;;;7.43;2.42;;;;;;;;;;5052933;28;20040;-62
2023/06/13 00:11:15;;;;;;;3.10;2.05;;;;;;;;;;5051817;28;20037;-62
2023/06/13 00:13:41;;;;;;;2.15;1.63;;;;;;;;;;5053018;28;20485;-61
2023/06/13 00:16:09;;;;;;;3.00;2.10;;;;;;;;;;5051360;28;20087;-61
2023/06/13 00:18:37;;;;;;;6.25;2.00;;;;;;;;;;5052917;28;20123;-63
2023/06/13 00:21:06;;;;;;;3.78;2.13;;;;;;;;;;5051630;28;20048;-62
2023/06/13 00:23:32;;;;;;;3.25;2.08;;;;;;;;;;5052836;28;20488;-62
2023/06/13 00:25:58;;;;;;;3.30;1.83;;;;;;;;;;5052793;28;20484;-62
2023/06/13 00:28:24;;;;;;;2.90;1.95;;;;;;;;;;5051382;28;20110;-61
2023/06/13 00:30:51;;;;;;;5.13;2.80;;;;;;;;;;5052839;28;20036;-62
2023/06/13 00:33:17;;;;;;;3.80;2.13;;;16.90;1.00;;;;;;5052752;28;20365;-62
2023/06/13 00:35:43;;;;;;;4.10;2.33;;;17.00;1.00;;;;;;5052723;28;20053;-61
2023/06/13 00:38:09;;;;;;;3.17;1.80;;;16.90;1.00;;;;;;5034922;28;20485;-62
2023/06/13 00:40:35;;;;;;;3.50;1.90;;;16.90;1.00;;;;;;5051476;28;20048;-63
2023/06/13 00:43:01;;;;;;;7.35;2.05;;;16.60;1.00;;;;;;5052715;28;20041;-62
2023/06/13 00:45:28;;;;;;;3.72;2.00;;;16.80;1.00;;;;;;5051395;28;20082;-61
2023/06/13 00:47:59;;;;;;;3.80;1.90;;;17.20;1.00;;;;;;5052624;28;20037;-61
2023/06/13 00:50:40;;;;;;;4.55;2.10;;;16.90;1.00;;;;;;5052621;28;20033;-62
2023/06/13 00:53:16;;;;;;;3.67;1.88;;;16.40;1.00;;;;;;5052743;28;20048;-62
2023/06/13 00:55:42;;;;;;;2.60;1.77;;;16.30;1.00;;;;;;5052642;28;20045;-61
2023/06/13 00:58:10;;;;;;;4.53;2.05;;;16.70;1.00;;;;;;5051032;28;20087;-62
2023/06/13 01:00:39;;;;;;;3.45;1.85;;;16.60;1.00;;;;;;5051360;28;20094;-62
2023/06/13 01:03:15;;;;;;;4.10;2.00;;;16.60;1.00;;;;;;5051023;28;20126;-62
2023/06/13 01:05:41;;;;;;;3.17;2.00;;;16.50;1.00;;;;;;5055887;28;20045;-62
2023/06/13 01:08:10;;;;;;;4.50;2.00;;;16.50;1.00;;;;;;5038032;28;20048;-64
2023/06/13 01:10:40;;;;;;;3.53;2.15;;;16.50;1.00;;;;;;5056122;28;20046;-62
2023/06/13 01:13:21;;;;;;;4.00;1.92;;;16.50;1.00;;;;;;5056198;28;20499;-61
2023/06/13 01:15:54;;;;;;;;;;;16.60;1.00;;;;;;5056504;28;20055;-65
2023/06/13 01:18:24;;;;;;;3.17;1.95;;;16.40;1.00;;;;;;5054561;28;19916;-65
2023/06/13 01:20:56;;;;;;;4.40;2.17;;;16.30;1.00;;;;;;5056037;28;20396;-65
2023/06/13 01:23:30;;;;;;;4.35;1.90;;;16.50;1.00;;;;;;5055665;28;20040;-62
2023/06/13 01:26:34;;;;;;;9.70;2.55;;;16.30;1.00;;;;;;5055838;28;20045;-62
2023/06/13 01:29:01;;;;;;;4.32;1.90;;;16.30;1.00;;;;;;5042200;28;20049;-65
2023/06/13 01:31:27;;;;;;;5.53;2.10;;;16.30;1.00;;;;;;5055601;28;20036;-65
2023/06/13 01:33:54;;;;;;;3.67;2.00;;;16.50;1.00;;;;;;5055749;28;20091;-65
2023/06/13 01:36:20;;;;;;;4.45;2.22;;;16.20;1.00;;;;;;5055753;28;20048;-65
2023/06/13 01:38:49;;;;;;;1.88;1.40;;;16.20;1.00;;;;;;5055697;28;20033;-65
2023/06/13 01:41:14;;;;;;;3.55;2.22;;;16.20;1.00;;;;;;5055267;28;20043;-65
2023/06/13 01:43:40;;;;;;;4.60;1.90;;;16.20;1.00;;;;;;5055306;28;20033;-65
2023/06/13 01:46:28;;;;;;;3.22;1.92;;;16.20;1.00;;;;;;5053868;28;20045;-65
2023/06/13 01:49:19;;;;;;;4.38;2.08;;;16.00;1.00;;;;;;5054125;28;20400;-65
2023/06/13 01:52:04;;;;;;;;;;;16.20;1.00;;;;;;5054391;28;20512;-65
2023/06/13 01:54:35;;;;;;;3.13;2.00;;;16.10;1.00;;;;;;5053819;28;20355;-65
2023/06/13 01:57:05;;;;;;;4.53;2.03;;;16.10;1.00;;;;;;5053853;28;20135;-65
2023/06/13 01:59:32;;;;;;;4.80;2.30;;;16.00;1.00;;;;;;5055254;28;20044;-65
2023/06/13 02:01:58;;;;;;;3.60;2.28;;;16.50;1.00;;;;;;5055168;28;20064;-65
2023/06/13 02:04:25;;;;;;;2.78;2.00;;;16.00;1.00;;;;;;5054756;28;20064;-65
2023/06/13 02:06:51;;;;;;;4.43;1.80;;;16.60;1.00;;;;;;5055117;28;20393;-65
2023/06/13 02:09:16;;;;;;;4.05;2.17;;;15.90;1.00;;;;;;5055058;28;20052;-65
2023/06/13 02:11:42;;;;;;;5.82;2.17;;;15.90;1.00;;;;;;5055117;28;20511;-65
2023/06/13 02:14:08;;;;;;;6.18;2.40;;;15.80;1.00;;;;;;5054657;28;20033;-65
2023/06/13 02:16:34;;;;;;;3.75;2.00;;;15.80;1.00;;;;;;5054514;28;20087;-65
2023/06/13 02:19:00;;;;;;;5.25;2.42;;;15.80;1.00;;;;;;5053452;28;20044;-65
2023/06/13 02:21:28;;;;;;;6.55;2.17;;;15.70;1.00;;;;;;5053344;28;20052;-65
2023/06/13 02:23:54;;;;;;;5.35;2.42;;;15.70;1.00;;;;;;5036661;28;20405;-65
2023/06/13 02:26:20;;;;;;;4.25;2.10;;;16.20;1.00;;;;;;5054698;28;20083;-65
2023/06/13 02:28:46;;;;;;;3.53;2.15;;;15.70;1.00;;;;;;5053265;28;20037;-65
2023/06/13 02:31:11;;;;;;;3.30;2.10;;;16.30;1.00;;;;;;5054368;28;20029;-65
2023/06/13 02:33:38;;;;;;;3.97;2.65;;;15.60;1.00;;;;;;5053356;28;20112;-65
2023/06/13 02:36:05;;;;;;;3.33;2.15;;;15.60;1.00;;;;;;5054610;28;20049;-65
2023/06/13 02:38:31;;;;;;;3.50;2.03;;;15.60;1.00;;;;;;5054555;28;20043;-65
2023/06/13 02:40:56;;;;;;;12.18;2.30;;;15.60;1.00;;;;;;5069617;28;20494;-65
2023/06/13 02:43:22;;;;;;;3.25;1.98;;;15.50;1.00;;;;;;5054410;28;20421;-65
2023/06/13 02:45:49;;;;;;;4.50;2.10;;;15.50;1.00;;;;;;5053172;28;20473;-65
2023/06/13 02:48:15;;;;;;;4.55;2.20;;;15.50;1.00;;;;;;5054091;28;20087;-65
2023/06/13 02:50:41;;;;;;;3.55;2.42;;;15.50;1.00;;;;;;5054027;28;20036;-65
2023/06/13 02:53:06;;;;;;;6.38;1.98;;;15.40;1.00;;;;;;5054216;28;20033;-65
2023/06/13 02:55:32;;;;;;;3.55;1.90;;;15.40;1.00;;;;;;5053820;28;20051;-65
2023/06/13 02:57:58;;;;;;;3.70;2.30;;;;;;;;;;5036406;28;20054;-66
2023/06/13 03:00:24;;;;;;;3.58;2.30;;;;;;;;;;5052558;28;20071;-65
2023/06/13 03:02:50;;;;;;;3.75;2.28;;;;;;;;;;5053907;28;20136;-65
2023/06/13 03:05:17;;;;;;;3.85;2.15;;;;;;;;;;5053872;28;20052;-65
2023/06/13 03:07:48;;;;;;;3.40;2.35;;;;;;;;;;5053649;28;20057;-65
2023/06/13 03:10:16;;;;;;;4.93;2.22;;;;;;;;;;5053899;28;20036;-65
2023/06/13 03:12:42;;;;;;;5.00;2.28;;;;;;;;;;5053973;28;20489;-65
2023/06/13 03:15:08;;;;;;;3.35;1.80;;;;;;;;;;5052327;28;20048;-65
2023/06/13 03:17:34;;;;;;;2.95;2.00;;;;;;;;;;5053753;28;20037;-65
2023/06/13 03:20:00;;;;;;;3.78;2.03;;;;;;;;;;5053709;28;20427;-65
2023/06/13 03:22:26;;;;;;;2.85;1.80;;;;;;;;;;5053421;28;20036;-65
2023/06/13 03:24:52;;;;;;;3.30;2.05;;;;;;;;;;5053614;28;20307;-65
2023/06/13 03:27:19;;;;;;;4.53;2.40;;;;;;;;;;5051309;28;20435;-65
2023/06/13 03:29:45;;;;;;;7.50;2.42;;;;;;;;;;5051985;28;20051;-65
2023/06/13 03:32:11;;;;;;;4.13;2.10;;;;;;;;;;5053502;28;20437;-65
2023/06/13 03:34:38;;;;;;;3.92;2.50;;;;;;;;;;5053469;28;20064;-65
2023/06/13 03:37:05;;;;;;;4.93;2.53;;;;;;;;;;5053470;28;20048;-65
2023/06/13 03:39:31;;;;;;;4.53;2.10;;;;;;;;;;5053365;28;20111;-64
2023/06/13 03:41:58;;;;;;;5.97;2.38;;;;;;;;;;5053007;28;20041;-65
2023/06/13 03:44:25;;;;;;;8.63;2.42;;;;;;;;;;5051757;28;20045;-65
2023/06/13 03:46:51;;;;;;;5.00;2.15;;;;;;;;;;5053193;28;20091;-64
2023/06/13 03:49:20;;;;;;;5.20;2.45;;;;;;;;;;5053176;28;20045;-65
2023/06/13 03:51:46;;;;;;;4.25;2.25;;;;;;;;;;5051648;28;20040;-65
2023/06/13 03:54:12;;;;;;;4.95;2.22;;;;;;;;;;5053120;28;20048;-64
2023/06/13 03:56:38;;;;;;;4.28;2.13;;;;;;;;;;5051859;28;20048;-65
2023/06/13 03:59:04;;;;;;;3.60;2.05;;;;;;;;;;5053089;28;20083;-65
2023/06/13 04:01:30;;;;;;;3.53;2.38;;;;;;;;;;5052949;28;20492;-64
2023/06/13 04:03:57;;;;;;;2.65;1.85;;;;;;;;;;5052682;28;20064;-64
2023/06/13 04:06:25;;;;;;;4.10;2.10;;;;;;;;;;5051445;28;20505;-65
2023/06/13 04:08:52;;;;;;;5.90;2.15;;;;;;;;;;5053057;28;20082;-65
2023/06/13 04:11:18;;;;;;;3.15;1.77;;;;;;;;;;5052690;28;20102;-65
2023/06/13 04:13:44;;;;;;;3.70;2.40;;;;;;;;;;5052867;28;20384;-65
2023/06/13 04:16:10;;;;;;;2.97;1.80;;;;;;;;;;5052583;28;20041;-65
2023/06/13 04:18:37;;;;;;;2.83;1.83;;;;;;;;;;5052794;28;20036;-64
2023/06/13 04:21:09;;;;;;;3.83;2.17;;;;;;;;;;5052947;28;20044;-64
2023/06/13 04:23:35;;;;;;;4.45;2.20;;;;;;;;;;5052461;28;20051;-64
2023/06/13 04:26:03;;;;;;;5.43;2.60;;;;;;;;;;5052739;28;20048;-64
2023/06/13 04:28:38;;;;;;;5.63;2.13;;;;;;;;;;5052546;28;20040;-64
2023/06/13 04:31:04;;;;;;;3.78;1.90;;;;;;;;;;5052751;28;20064;-65
2023/06/13 04:33:30;;;;;;;3.92;2.38;;;;;;;;;;5052717;28;20045;-65
2023/06/13 04:36:03;;;;;;;2.83;1.80;;;;;;;;;;5052735;28;20400;-65
2023/06/13 04:38:30;;;;;;;3.97;2.20;;;;;;;;;;5053459;28;20045;-65
2023/06/13 04:40:57;;;;;;;3.70;1.95;;;;;;;;;;5055551;28;20135;-65
2023/06/13 04:43:23;;;;;;;3.80;2.30;;;;;;;;;;5056791;28;20115;-64
2023/06/13 04:45:49;;;;;;;4.63;2.47;;;;;;;;;;5056459;28;20481;-65
2023/06/13 04:48:15;;;;;;;4.47;2.92;;;;;;;;;;5056746;28;20049;-62
2023/06/13 04:50:41;;;;;;;4.38;2.10;;;;;;;;;;5056315;28;20039;-62
2023/06/13 04:53:11;;;;;;;2.72;1.83;;;;;;;;;;5056483;28;20069;-62
2023/06/13 04:55:37;;;;;;;4.60;2.30;;;;;;;;;;5054989;28;20056;-62
2023/06/13 04:58:04;;;;;;;3.28;2.17;;;;;;;;;;5056411;28;20047;-62
2023/06/13 05:00:30;;;;;;;3.53;2.20;;;;;;;;;;5054856;28;20045;-61
2023/06/13 05:02:56;;;;;;;4.57;2.35;;;;;;;;;;5056068;28;20416;-62
2023/06/13 05:05:23;;;;;;;2.72;1.90;;;;;;;;;;5056188;28;20049;-62
2023/06/13 05:07:55;;;;;;;5.20;2.60;;;;;;;;;;5055991;28;20131;-62
2023/06/13 05:10:22;;;;;;;4.35;2.40;;;;;;;;;;5056050;28;20044;-62
2023/06/13 05:12:48;;;;;;;3.17;1.90;;;;;;;;;;5055949;28;20369;-62
2023/06/13 05:15:16;;;;;;;2.75;1.92;;;;;;;;;;5056044;28;20041;-62
2023/06/13 05:17:42;;;;;;;6.78;2.10;;;;;;;;;;5038187;28;20124;-62
2023/06/13 05:20:10;;;;;;;4.32;2.28;;;;;;;;;;5056010;28;20115;-62
2023/06/13 05:22:39;;;;;;;7.80;2.85;;;;;;;;;;5054723;28;20045;-62
2023/06/13 05:25:08;;;;;;;4.30;2.20;;;;;;;;;;5054361;28;20095;-62
2023/06/13 05:27:35;;;;;;;4.97;2.38;;;;;;;;;;5055862;28;20041;-65
2023/06/13 05:30:01;;;;;;;7.53;2.53;;;;;;;;;;5055806;28;20374;-66
2023/06/13 05:32:27;;;;;;;4.38;2.70;;;;;;;;;;5054289;28;20047;-63
2023/06/13 05:34:53;;;;;;;4.13;2.30;;;;;;;;;;5055738;28;20041;-62
2023/06/13 05:37:19;;;;;;;4.35;2.53;;;;;;;;;;5055576;28;20037;-62
2023/06/13 05:39:45;;;;;;;3.47;1.92;;;;;;;;;;5054102;28;20076;-63
2023/06/13 05:42:11;;;;;;;4.60;1.65;;;;;;;;;;5055605;28;20032;-63
2023/06/13 05:44:37;;;;;;;4.75;2.60;;;;;;;;;;5055599;28;20047;-63
2023/06/13 05:47:04;;;;;;;3.80;2.13;;;;;;;;;;5055109;28;20488;-62
2023/06/13 05:49:30;;;;;;;5.32;2.45;;;;;;;;;;5054258;28;20051;-63
2023/06/13 05:51:57;;;;;;;4.18;2.33;;;;;;;;;;5055186;28;20037;-68
2023/06/13 05:54:23;;;;;;;6.57;2.10;;;;;;;;;;5055367;28;20086;-63
2023/06/13 05:56:49;;;;;;;3.38;1.85;;;;;;;;;;5053743;28;20118;-64
2023/06/13 05:59:15;;;;;;;3.92;2.20;;;;;;;;;;5053719;28;20041;-63
2023/06/13 06:01:42;;;;;;;3.10;1.73;;;;;;;;;;5055333;28;20424;-68
2023/06/13 06:04:08;;;;;;;3.47;1.95;;;;;;;;;;5054880;28;20111;-63
2023/06/13 06:06:34;;;;;;;3.55;2.47;;;;;;;;;;5055044;28;20102;-63
2023/06/13 06:09:00;;;;;;;6.60;2.50;;;;;;;;;;5055133;28;20045;-65
2023/06/13 06:11:27;;;;;;;3.05;1.67;;;;;;;;;;5055081;28;20116;-63
2023/06/13 06:13:53;;;;;;;3.83;2.05;;;;;;;;;;5053514;28;20083;-63
2023/06/13 06:16:19;;;;;;;3.10;1.90;;;;;;;;;;5053749;28;20096;-63
2023/06/13 06:18:45;;;;;;;3.22;2.00;;;;;;;;;;5054586;28;20097;-63
2023/06/13 06:21:11;;;;;;;4.60;2.33;;;;;;;;;;5054823;28;20076;-66
2023/06/13 06:23:39;;;;;;;3.17;2.00;;;;;;;;;;5053274;28;20145;-63
2023/06/13 06:26:05;;;;;;;3.58;2.10;;;;;;;;;;5053160;28;20485;-63
2023/06/13 06:28:31;;;;;;;2.92;1.77;;;;;;;;;;5054692;28;20037;-64
2023/06/13 06:30:57;;;;;;;3.47;1.75;;;;;;;;;;5053233;28;20377;-64
2023/06/13 06:33:23;;;;;;;6.03;1.92;;;;;;;;;;5054590;28;20045;-63
2023/06/13 06:35:49;;;;;;;6.78;1.90;;;;;;;;;;5053105;28;20045;-66
2023/06/13 06:38:15;;;;;;;2.53;1.52;;;;;;;;;;5036381;28;20072;-65
2023/06/13 06:40:41;;;;;;;4.10;1.98;;;;;;;;;;5054531;28;20040;-65
2023/06/13 06:43:07;;;;;;;2.33;1.50;;;;;;;;;;5054384;28;20071;-65
2023/06/13 06:45:33;;;;;;;1.48;1.27;;;;;;;;;;5053952;28;20048;-65
2023/06/13 06:48:01;;;;;;;4.20;1.98;;;;;;;;;;5054302;28;20060;-65
2023/06/13 06:50:27;;;;;;;3.47;1.83;;;;;;;;;;5052745;28;20049;-65
2023/06/13 06:52:53;;;;;;;2.78;1.85;;;;;;;;;;5036646;28;20099;-65
2023/06/13 06:55:19;;;;;;;5.72;1.80;;;;;;;;;;5053869;28;20048;-65
2023/06/13 06:57:45;;;;;;;3.45;1.67;;;;;;;;;;5036279;28;20099;-65
2023/06/13 07:00:14;;;;;;;2.97;1.65;;;;;;;;;;5052535;28;20416;-65
2023/06/13 07:02:41;;;;;;;4.03;2.00;;;;;;;;;;5052373;28;20106;-65
2023/06/13 07:05:09;;;;;;;7.00;1.75;;;;;;;;;;5052337;28;20045;-65
2023/06/13 07:07:35;;;;;;;7.07;1.75;;;;;;;;;;5053890;28;20497;-66
2023/06/13 07:10:01;;;;;;;4.60;1.92;;;;;;;;;;5052709;28;20040;-65
2023/06/13 07:12:27;;;;;;;2.85;1.70;;;;;;;;;;5052402;28;20043;-66
2023/06/13 07:14:55;;;;;;;5.63;1.73;;;;;;;;;;5053656;28;20131;-65
2023/06/13 07:17:20;;;;;;;5.70;1.90;;;21.40;1.00;;;;;;5053854;28;20481;-65
2023/06/13 07:19:46;;;;;;;3.15;1.67;;;21.30;1.00;;;;;;5053521;28;20039;-65
2023/06/13 07:22:11;;;;;;;2.25;1.50;;;21.30;1.00;;;;;;5053444;28;20473;-65
2023/06/13 07:24:37;;;;;;;2.20;1.50;;;21.50;1.00;;;;;;5053697;28;20040;-65
2023/06/13 07:27:03;;;;;;;2.22;1.58;;;21.60;1.00;;;;;;5052160;28;20055;-65
2023/06/13 07:29:28;;;;;;;3.58;1.95;;;21.70;1.00;;;;;;5053666;28;20029;-66
2023/06/13 07:31:54;;;;;;;2.03;1.50;;;21.70;1.00;;;;;;5053489;28;20040;-66
2023/06/13 07:34:20;;;;;;;2.97;1.52;;;21.70;1.00;;;;;;5053451;28;20396;-65
2023/06/13 07:36:45;;;;;;;2.45;1.63;;;21.80;1.00;;;;;;5051934;28;20048;-65
2023/06/13 07:39:12;;;;;;;2.92;1.70;;;22.00;1.00;;;;;;5068384;28;20120;-65
2023/06/13 07:41:38;;;;;;;2.45;1.70;;;22.10;1.00;;;;;;5053026;28;20048;-65
2023/06/13 07:44:04;;;;;;;8.23;2.83;;;22.30;1.00;;;;;;5053252;28;20404;-66
2023/06/13 07:46:30;;;;;;;2.35;1.30;;;22.30;1.00;;;;;;5053146;28;20053;-65
2023/06/13 07:48:56;;;;;;;1.77;1.20;;;22.30;1.00;;;;;;5053197;28;20043;-65
2023/06/13 07:51:22;;;;;;;1.83;1.27;;;22.70;1.00;;;;;;5051690;28;20395;-65
2023/06/13 07:53:47;;;;;;;3.92;1.63;;;22.60;1.00;;;;;;5053223;28;20078;-66
2023/06/13 07:56:13;;;;;;;2.40;1.50;;;22.50;1.00;;;;;;5051863;28;20447;-65
2023/06/13 07:58:39;;;;;;;2.20;1.10;;;22.70;1.00;;;;;;5052827;28;20044;-65
2023/06/13 08:01:04;;;;;;;2.38;1.42;;;22.50;1.00;;;;;;5052658;28;20041;-66
2023/06/13 08:03:30;;;;;;;2.42;1.75;;;22.80;1.00;;;;;;5052660;28;20056;-66
2023/06/13 08:05:56;;;;;;;2.25;1.30;;;23.00;1.00;;;;;;5051346;28;20041;-66
2023/06/13 08:08:21;;;;;;;2.80;1.55;;;23.10;1.00;;;;;;5052674;28;20029;-66
2023/06/13 08:10:47;;;;;;;2.80;1.58;;;23.10;1.00;;;;;;5051368;28;20072;-65
2023/06/13 08:13:13;;;;;;;3.42;1.30;;;23.50;1.00;;;;;;5052446;28;20408;-66
2023/06/13 08:15:38;;;;;;;2.03;1.50;;;23.30;1.00;;;;;;5052935;28;20033;-65
2023/06/13 08:18:04;;;;;;;4.18;1.58;;;23.40;1.00;;;;;;5052541;28;20464;-66
2023/06/13 08:20:30;;;;;;;1.63;1.40;;;23.50;1.00;;;;;;5052492;28;20119;-65
2023/06/13 08:22:56;;;;;;;3.25;1.45;;;23.60;1.00;;;;;;5052528;28;20072;-66
2023/06/13 08:25:22;;;;;;;2.67;1.67;;;23.50;1.00;;;;;;5052753;28;20037;-65
2023/06/13 08:27:48;;;;;;;3.25;1.90;;;23.50;1.00;;;;;;5052844;28;20037;-66
2023/06/13 08:30:14;;;;;;;2.40;1.40;;;23.80;1.00;;;;;;5052738;28;20160;-66
2023/06/13 08:32:41;;;;;;;3.20;1.40;;;23.70;1.00;;;;;;5052760;28;20532;-65
2023/06/13 08:35:07;;;;;;;3.15;1.50;;;23.80;1.00;;;;;;5052847;28;20040;-66
2023/06/13 08:37:33;;;;;;;1.83;1.33;;;23.90;1.00;;;;;;5051244;28;20096;-66
2023/06/13 08:39:59;;;;;;;2.65;1.40;;;24.10;1.00;;;;;;5051373;28;20119;-66
2023/06/13 08:42:26;;;;;;;1.90;1.23;;;24.10;1.00;;;;;;5051089;28;20124;-66
2023/06/13 08:44:52;;;;;;;2.55;1.48;;;24.20;1.00;;;;;;5052686;28;20080;-66
2023/06/13 08:47:18;;;;;;;2.97;1.83;;;24.00;1.00;;;;;;5051062;28;20055;-66
2023/06/13 08:49:48;;;;;;;2.67;1.52;;;24.10;1.00;;;;;;5051122;28;20037;-66
2023/06/13 08:52:16;;;;;;;1.80;1.38;;;24.20;1.00;;;;;;5052261;28;20047;-66
2023/06/13 08:54:43;;;;;;;4.22;1.58;;;24.30;1.00;;;;;;5052632;28;20052;-66
2023/06/13 08:57:15;;;;;;;2.72;1.30;;;24.40;1.00;;;;;;5051029;28;20049;-66
2023/06/13 08:59:44;;;;;;;4.15;1.42;;;24.40;1.00;;;;;;5052308;28;20048;-66
2023/06/13 09:02:14;;;;;;;1.25;1.10;;;24.40;1.00;;;;;;5050985;28;20120;-66
2023/06/13 09:04:43;;;;;;;1.70;1.30;;;24.60;1.00;;;;;;5050969;28;20081;-66
2023/06/13 09:07:10;;;;;;;3.08;1.40;;;24.60;1.00;;;;;;5052141;28;20167;-65
2023/06/13 09:09:38;;;;;;;2.58;1.50;;;24.60;1.00;;;;;;5052413;28;20048;-65
2023/06/13 09:12:06;;;;;;;1.73;1.30;;;24.60;1.00;;;;;;5052420;28;20040;-65
2023/06/13 09:14:32;;;;;;;2.55;1.55;;;24.70;1.00;;;;;;5052424;28;20104;-65
2023/06/13 09:16:58;;;;;;;2.15;1.30;;;24.80;1.00;;;;;;5051159;28;20085;-65
2023/06/13 09:19:24;;;;;;;2.05;1.42;;;24.90;1.00;;;;;;5052044;28;20080;-66
2023/06/13 09:21:50;;;;;;;3.05;1.40;;;24.90;1.00;;;;;;5050759;28;20040;-66
2023/06/13 09:24:17;;;;;;;2.42;1.63;;;25.00;1.00;;;;;;5052462;28;20041;-63
2023/06/13 09:26:43;;;;;;;2.67;1.70;;;25.00;1.00;;;;;;5055919;28;20529;-63
2023/06/13 09:29:09;;;;;;;3.00;1.70;;;25.00;1.00;;;;;;5055921;28;20068;-63
2023/06/13 09:31:38;;;;;;;3.10;1.80;;;24.90;1.00;;;;;;5055777;28;20392;-63
2023/06/13 09:34:07;;;;;;;1.83;1.20;;;24.90;1.00;;;;;;5055822;28;20040;-63
2023/06/13 09:36:37;;;;;;;2.22;1.48;;;25.10;1.00;;;;;;5054529;28;20045;-63
2023/06/13 09:39:04;;;;;;;2.70;1.65;;;25.10;1.00;;;;;;5055428;28;20049;-63
2023/06/13 09:41:31;;;;;;;2.58;1.60;;;25.00;1.00;;;;;;5054103;28;20086;-63
2023/06/13 09:44:03;;;;;;;2.58;1.25;;;25.00;1.00;;;;;;5054161;28;20045;-63
2023/06/13 09:46:28;;;;;;;3.55;1.52;;;25.10;1.00;;;;;;5055580;28;20143;-63
2023/06/13 09:48:55;;;;;;;2.40;1.40;;;25.00;1.00;;;;;;5055523;28;20496;-63
2023/06/13 09:51:21;;;;;;;3.85;1.38;;;25.00;1.00;;;;;;5053920;28;20124;-63
2023/06/13 09:53:47;;;;;;;3.83;1.80;;;25.20;1.00;;;;;;5055421;28;20029;-63
2023/06/13 09:56:12;;;;;;;1.95;1.27;;;25.20;1.00;;;;;;5053751;28;20056;-63
2023/06/13 09:58:40;;;;;;;2.47;1.33;;;25.30;1.00;;;;;;5053874;28;20044;-62
2023/06/13 10:01:11;;;;;;;2.35;1.80;;;25.10;1.00;;;;;;5055335;28;20463;-63
2023/06/13 10:03:37;;;;;;;2.63;1.63;;;25.30;1.00;;;;;;5054891;28;20399;-63
2023/06/13 10:06:03;;;;;;;2.20;1.23;;;25.40;1.00;;;;;;5055128;28;20052;-63
2023/06/13 10:08:31;;;;;;;2.72;1.80;;;25.40;1.00;;;;;;5055181;28;20447;-63
2023/06/13 10:11:01;;;;;;;2.30;1.50;;;25.40;1.00;;;;;;5054773;28;20037;-63
2023/06/13 10:13:32;;;;;;;2.60;1.67;;;25.40;1.00;;;;;;5055139;28;20037;-63
2023/06/13 10:16:03;;;;;;;1.60;1.30;;;25.40;1.00;;;;;;5053490;28;20407;-63
2023/06/13 10:18:37;;;;;;;2.65;1.50;;;25.40;1.00;;;;;;5053756;28;20351;-63
2023/06/13 10:21:03;;;;;;;2.05;1.50;;;25.30;1.00;;;;;;5053602;28;20045;-63
2023/06/13 10:23:33;;;;;;;2.85;1.70;;;25.50;1.00;;;;;;5054818;28;20064;-63
2023/06/13 10:26:06;;;;;;;2.17;1.40;;;25.50;1.00;;;;;;5054719;28;20377;-63
2023/06/13 10:28:50;;;;;;;4.63;1.80;;;25.50;1.00;;;;;;5054669;28;20041;-63
2023/06/13 10:31:35;;;;;;;2.08;1.45;;;25.30;1.00;;;;;;5054579;28;20396;-63
2023/06/13 10:34:18;;;;;;;4.15;1.58;;;25.40;1.00;;;;;;5036723;28;20423;-63
2023/06/13 10:36:50;;;;;;;2.25;1.75;;;25.10;1.00;;;;;;5054210;28;20051;-66
2023/06/13 10:39:32;;;;;;;3.13;1.40;;;25.20;1.00;;;;;;5054528;28;20048;-65
2023/06/13 10:42:06;;;;;;;3.80;1.75;;;25.20;1.00;;;;;;5054435;28;20542;-66
2023/06/13 10:44:47;;;;;;;2.22;1.45;;;25.30;1.00;;;;;;5052886;28;20419;-65
2023/06/13 10:47:18;;;;;;;3.28;1.42;;;25.50;1.00;;;;;;5054223;28;20045;-66
2023/06/13 10:49:48;;;;;;;3.33;1.70;;;25.30;1.00;;;;;;5054310;28;20033;-65
2023/06/13 10:52:13;;;;;;;2.85;1.38;;;25.20;1.00;;;;;;5054287;28;20037;-66
2023/06/13 10:54:40;;;;;;;3.78;1.67;;;25.30;1.00;;;;;;5052669;28;20071;-66
2023/06/13 10:57:07;;;;;;;2.58;1.70;;;25.20;1.00;;;;;;5053928;28;20106;-65
2023/06/13 10:59:39;;;;;;;2.13;1.50;;;25.30;1.00;;;;;;5053862;28;20081;-65
2023/06/13 11:02:14;;;;;;;1.70;1.30;;;25.30;1.00;;;;;;5052608;28;20115;-66
2023/06/13 11:04:40;;;;;;;1.85;1.55;;;25.30;1.00;;;;;;5052569;28;20080;-65
2023/06/13 11:07:21;;;;;;;3.38;1.60;;;25.30;1.00;;;;;;5053593;28;20045;-65
2023/06/13 11:10:14;;;;;;;2.50;1.38;;;25.30;1.00;;;;;;5053959;28;20501;-65
2023/06/13 11:12:42;;;;;;;3.63;1.50;;;25.30;1.00;;;;;;5052389;28;20036;-65
2023/06/13 11:15:27;;;;;;;4.38;1.65;;;25.50;1.00;;;;;;5053518;28;20037;-65
2023/06/13 11:18:05;;;;;;;2.75;1.63;;;25.50;1.00;;;;;;5053487;28;20472;-65
2023/06/13 11:20:31;;;;;;;4.03;1.75;;;25.60;1.00;;;;;;5053406;28;20084;-65
2023/06/13 11:22:57;;;;;;;3.45;1.75;;;25.60;1.00;;;;;;5053666;28;20392;-66
2023/06/13 11:25:24;;;;;;;2.72;1.80;;;25.50;1.00;;;;;;5053212;28;20131;-66
2023/06/13 11:27:50;;;;;;;2.47;1.55;;;25.50;1.00;;;;;;5053544;28;20033;-65
2023/06/13 11:30:17;;;;;;;2.53;1.60;;;25.40;1.00;;;;;;5053493;28;20047;-63
2023/06/13 11:32:43;;;;;;;1.98;1.15;;;25.50;1.00;;;;;;5053254;28;20123;-63
2023/06/13 11:35:12;;;;;;;3.60;1.48;;;25.60;1.00;;;;;;5051894;28;20033;-63
2023/06/13 11:37:44;;;;;;;4.25;1.33;;;26.00;1.00;;;;;;5053453;28;20111;-63
2023/06/13 11:40:22;;;;;;;2.63;1.52;;;25.50;1.00;;;;;;5053457;28;20044;-66
2023/06/13 11:42:49;;;;;;;2.63;1.77;;;25.60;1.00;;;;;;5052026;28;20045;-66
2023/06/13 11:45:15;;;;;;;3.55;2.25;;;25.60;1.00;;;;;;5051626;28;20044;-66
2023/06/13 11:47:44;;;;;;;2.00;1.30;;;25.60;1.00;;;;;;5051018;28;20095;-66
2023/06/13 11:50:10;;;;;;;3.10;1.65;;;25.70;1.00;;;;;;5035384;28;20488;-66
2023/06/13 11:52:36;;;;;;;3.38;1.40;;;25.80;1.00;;;;;;5052794;28;20116;-65
2023/06/13 11:55:16;;;;;;;2.45;1.80;;;25.60;1.00;;;;;;5051859;28;20122;-65
2023/06/13 11:57:51;;;;;;;;;;;25.50;1.00;;;;;;5053133;28;20045;-65
2023/06/13 12:00:17;;;;;;;2.30;1.50;;;25.60;1.00;;;;;;5051301;28;19966;-65
2023/06/13 12:02:43;;;;;;;2.55;1.48;;;25.70;1.00;;;;;;5052706;28;20057;-65
2023/06/13 12:05:10;;;;;;;2.03;1.23;;;25.70;1.00;;;;;;5052798;28;20053;-65
2023/06/13 12:07:36;;;;;;;2.80;1.88;;;25.60;1.00;;;;;;5052589;28;20037;-66
2023/06/13 12:10:03;;;;;;;1.98;1.40;;;25.70;1.00;;;;;;5052485;28;20136;-65
2023/06/13 12:12:29;;;;;;;5.80;1.80;;;25.80;1.00;;;;;;5068274;28;20083;-65
2023/06/13 12:14:55;;;;;;;2.38;1.63;;;26.10;1.00;;;;;;5052503;28;20047;-65
2023/06/13 12:17:23;;;;;;;2.75;1.45;;;25.80;1.00;;;;;;5052695;28;20041;-65
2023/06/13 12:19:48;;;;;;;4.65;1.80;;;25.90;1.00;;;;;;5052428;28;20124;-65
2023/06/13 12:22:15;;;;;;;3.17;1.42;;;25.90;1.00;;;;;;5051167;28;20127;-65
2023/06/13 12:24:42;;;;;;;5.30;1.42;;;25.90;1.00;;;;;;5051556;28;20558;-65
2023/06/13 12:27:11;;;;;;;3.95;1.40;;;25.90;1.00;;;;;;5052709;28;20443;-65
2023/06/13 12:29:39;;;;;;;1.60;1.05;;;25.80;1.00;;;;;;5051160;28;20036;-65
2023/06/13 12:32:06;;;;;;;2.20;1.17;;;25.80;1.00;;;;;;5051462;28;20481;-66
2023/06/13 12:34:35;;;;;;;1.60;1.40;;;26.00;1.00;;;;;;5051268;28;20473;-65
2023/06/13 12:37:07;;;;;;;2.22;1.35;;;26.10;1.00;;;;;;5052790;28;20052;-66
2023/06/13 12:39:34;;;;;;;5.03;1.50;;;26.00;1.00;;;;;;5034577;28;20454;-66
2023/06/13 12:42:08;;;;;;;2.90;1.67;;;26.00;1.00;;;;;;5034608;28;20408;-65
2023/06/13 12:44:35;;;;;;;4.18;1.30;;;26.10;1.00;;;;;;5050949;28;20045;-68
2023/06/13 12:47:04;;;;;;;2.22;1.13;;;26.00;1.00;;;;;;5052428;28;20056;-66
2023/06/13 12:49:40;;;;;;;2.63;1.23;;;26.10;1.00;;;;;;5052524;28;20382;-66
2023/06/13 12:52:06;;;;;;;6.00;1.50;;;26.00;1.00;;;;;;5052263;28;20037;-66
2023/06/13 12:54:35;;;;;;;2.17;1.38;;;26.10;1.00;;;;;;5051238;28;20615;-66
2023/06/13 12:57:02;;;;;;;2.40;1.00;;;26.00;1.00;;;;;;5052287;28;20051;-66
2023/06/13 12:59:52;;;;;;;2.58;1.70;;;26.20;1.00;;;;;;5053372;28;20036;-65
2023/06/13 13:02:20;;;;;;;2.00;1.55;;;26.30;1.00;;;;;;5056026;28;20041;-65
2023/06/13 13:04:47;;;;;;;2.00;1.50;;;26.20;1.00;;;;;;5056384;28;20087;-66
2023/06/13 13:07:14;;;;;;;2.55;1.50;;;26.20;1.00;;;;;;5056213;28;20045;-65
2023/06/13 13:09:43;;;;;;;2.40;1.30;;;26.10;1.00;;;;;;5056287;28;20116;-65
2023/06/13 13:12:09;;;;;;;2.45;1.20;;;26.30;1.00;;;;;;5056260;28;20116;-65
2023/06/13 13:14:35;;;;;;;3.80;1.70;;;26.30;1.00;;;;;;5056147;28;20037;-65
2023/06/13 13:17:01;;;;;;;2.75;1.52;;;26.00;1.00;;;;;;5056186;28;20036;-65
2023/06/13 13:19:26;;;;;;;2.22;1.23;;;26.20;1.00;;;;;;5055634;28;20045;-65
2023/06/13 13:21:52;;;;;;;4.18;1.85;;;26.30;1.00;;;;;;5056003;28;20102;-65
2023/06/13 13:24:18;;;;;;;3.15;1.60;;;26.10;1.00;;;;;;5055910;28;20043;-65
2023/06/13 13:26:51;;;;;;;2.05;1.10;;;26.20;1.00;;;;;;5054256;28;20049;-66
2023/06/13 13:29:16;;;;;;;2.53;1.10;;;26.20;1.00;;;;;;5054285;28;20052;-65
2023/06/13 13:31:42;;;;;;;3.65;1.20;;;26.10;1.00;;;;;;5054422;28;20041;-65
2023/06/13 13:34:09;;;;;;;2.22;1.20;;;26.10;1.00;;;;;;5055793;28;20170;-65
2023/06/13 13:36:35;;;;;;;4.05;1.38;;;26.20;1.00;;;;;;5055722;28;20090;-65